Time;durP1;ratioP1;P1;durP2;ratioP2;P2;SDS_P1;SDS_P2;PMS_P1;PMS_P2;Temp;Humidity;BMP_temperature;BMP_pressure;BME280_temperature;BME280_humidity;BME280_pressure;Samples;Min_cycle;Max_cycle;Signal;HPM_P1;HPM_P2
2022/12/02 00:02:33;;;;;;;11.45;7.22;;;24.80;90.40;;;;;;1766534;79;21225;-84
2022/12/02 00:05:20;;;;;;;5.33;3.45;;;24.80;90.40;;;;;;1771677;80;21234;-83
2022/12/02 00:07:59;;;;;;;11.85;3.10;;;24.80;90.30;;;;;;1773755;79;21606;-84
2022/12/02 00:10:32;;;;;;;4.47;2.83;;;24.80;90.30;;;;;;1777161;80;21265;-85
2022/12/02 00:13:08;;;;;;;7.08;2.80;;;24.80;90.30;;;;;;1774455;80;21305;-84
2022/12/02 00:15:41;;;;;;;7.70;3.30;;;24.80;90.30;;;;;;1781883;79;21119;-83
2022/12/02 00:18:14;;;;;;;8.43;4.03;;;24.90;90.20;;;;;;1770826;79;21194;-83
2022/12/02 00:20:45;;;;;;;12.28;5.65;;;24.90;90.20;;;;;;1722478;82;21199;-84
2022/12/02 00:23:16;;;;;;;8.40;5.03;;;25.00;90.30;;;;;;1781130;80;21268;-84
2022/12/02 00:25:49;;;;;;;8.75;4.80;;;25.00;90.10;;;;;;1771996;79;21107;-83
2022/12/02 00:28:20;;;;;;;8.60;5.10;;;25.00;90.10;;;;;;1767862;80;21254;-83
2022/12/02 00:30:50;;;;;;;5.20;2.70;;;25.10;90.10;;;;;;1774541;80;21190;-83
2022/12/02 00:33:21;;;;;;;7.28;3.45;;;25.10;90.00;;;;;;1763882;80;21095;-83
2022/12/02 00:35:52;;;;;;;7.20;4.50;;;25.10;89.90;;;;;;1764468;79;21234;-83
2022/12/02 00:38:24;;;;;;;7.70;4.35;;;25.10;90.00;;;;;;1770822;80;21174;-82
2022/12/02 00:40:57;;;;;;;7.20;4.10;;;25.10;90.40;;;;;;1770811;79;21635;-83
2022/12/02 00:46:34;;;;;;;5.47;2.90;;;25.20;89.90;;;;;;1778188;80;21186;-84
2022/12/02 00:49:10;;;;;;;7.10;3.90;;;25.10;90.00;;;;;;1776373;80;21127;-83
2022/12/02 00:51:41;;;;;;;8.50;3.73;;;25.10;90.00;;;;;;1771876;80;21634;-84
2022/12/02 00:54:13;;;;;;;7.03;3.25;;;25.10;90.30;;;;;;1755481;80;21216;-83
2022/12/02 00:56:43;;;;;;;9.35;4.00;;;25.20;90.40;;;;;;1758890;80;21174;-84
2022/12/02 00:59:14;;;;;;;7.08;3.60;;;25.20;90.20;;;;;;1775177;79;21183;-83
2022/12/02 01:01:45;;;;;;;7.92;3.87;;;25.30;90.20;;;;;;1777264;79;21347;-83
2022/12/02 01:04:15;;;;;;;8.08;3.75;;;25.30;90.10;;;;;;1771414;80;21180;-83
2022/12/02 01:06:47;;;;;;;6.60;3.30;;;25.40;90.20;;;;;;1770308;79;21194;-84
2022/12/02 01:09:17;;;;;;;6.30;3.72;;;25.40;90.00;;;;;;1771015;80;21189;-84
2022/12/02 01:11:49;;;;;;;7.97;3.08;;;25.50;89.40;;;;;;1779684;79;21127;-71
2022/12/02 01:14:19;;;;;;;5.55;2.87;;;25.50;88.90;;;;;;1775165;80;21191;-73
2022/12/02 01:16:51;;;;;;;5.33;2.83;;;25.60;88.90;;;;;;1768354;80;21088;-71
2022/12/02 01:19:22;;;;;;;6.70;3.10;;;25.60;88.50;;;;;;1718663;82;21613;-72
2022/12/02 01:21:52;;;;;;;7.60;3.30;;;25.70;88.70;;;;;;1717182;82;21225;-72
2022/12/02 01:24:23;;;;;;;7.22;3.10;;;25.80;88.40;;;;;;1772586;79;21285;-74
2022/12/02 01:26:56;;;;;;;8.33;4.92;;;25.80;88.00;;;;;;1763674;79;21179;-76
2022/12/02 01:29:27;;;;;;;10.88;6.20;;;25.70;88.10;;;;;;1777705;80;21693;-73
2022/12/02 01:31:57;;;;;;;6.95;2.60;;;25.70;88.10;;;;;;1773306;79;21234;-74
2022/12/02 01:34:29;;;;;;;8.50;3.37;;;25.70;87.90;;;;;;1775486;80;21175;-74
2022/12/02 01:37:00;;;;;;;7.05;1.80;;;25.70;88.20;;;;;;1766549;80;21285;-73
2022/12/02 01:39:31;;;;;;;4.78;2.20;;;25.70;87.90;;;;;;1780385;79;21162;-74
2022/12/02 01:42:02;;;;;;;5.87;2.60;;;25.70;88.30;;;;;;1765729;80;21638;-72
2022/12/02 01:44:35;;;;;;;6.92;3.72;;;25.70;88.50;;;;;;1777249;80;21099;-73
2022/12/02 01:47:07;;;;;;;3.47;2.17;;;25.70;88.30;;;;;;1771681;79;21190;-73
2022/12/02 01:49:38;;;;;;;8.75;2.40;;;25.70;88.40;;;;;;1770582;79;21170;-73
2022/12/02 01:52:09;;;;;;;7.08;2.67;;;25.70;88.10;;;;;;1767057;79;21162;-72
2022/12/02 01:54:40;;;;;;;4.67;2.70;;;25.70;88.40;;;;;;1770413;80;21215;-73
2022/12/02 01:57:15;;;;;;;3.87;2.10;;;25.80;88.30;;;;;;1740112;82;21159;-73
2022/12/02 01:59:46;;;;;;;5.15;2.27;;;25.80;88.40;;;;;;1782141;80;21170;-76
2022/12/02 02:02:28;;;;;;;7.45;2.37;;;25.80;87.90;;;;;;1767560;80;21169;-72
2022/12/02 02:05:02;;;;;;;4.70;2.15;;;25.80;87.60;;;;;;1771913;78;21115;-75
2022/12/02 02:07:34;;;;;;;4.97;2.00;;;25.80;87.40;;;;;;1777301;79;21193;-74
2022/12/02 02:10:06;;;;;;;7.87;2.33;;;25.90;87.20;;;;;;1778828;79;21171;-73
2022/12/02 02:12:37;;;;;;;5.17;2.05;;;25.90;87.30;;;;;;1774698;80;21189;-73
2022/12/02 02:15:12;;;;;;;5.65;2.50;;;25.90;87.60;;;;;;1768208;79;21268;-73
2022/12/02 02:17:43;;;;;;;5.42;2.17;;;25.90;87.20;;;;;;1775732;80;21202;-73
2022/12/02 02:20:16;;;;;;;6.22;2.72;;;25.90;87.00;;;;;;1775222;79;21724;-74
2022/12/02 02:23:07;;;;;;;7.65;2.42;;;26.00;87.20;;;;;;1772258;80;21575;-73
2022/12/02 02:25:49;;;;;;;6.75;2.60;;;26.10;87.10;;;;;;1772067;80;21152;-72
2022/12/02 02:28:23;;;;;;;5.08;2.00;;;26.20;87.00;;;;;;1767464;80;21214;-73
2022/12/02 02:30:57;;;;;;;4.37;1.80;;;26.20;86.90;;;;;;1765819;80;21564;-72
2022/12/02 02:33:30;;;;;;;3.05;2.00;;;26.20;86.10;;;;;;1781607;79;21415;-73
2022/12/02 02:36:03;;;;;;;4.15;1.87;;;26.30;85.90;;;;;;1780404;80;21284;-72
2022/12/02 02:38:35;;;;;;;7.42;1.80;;;26.30;85.50;;;;;;1785999;79;21115;-71
2022/12/02 02:41:08;;;;;;;5.50;2.37;;;26.30;85.70;;;;;;1782475;80;21260;-72
2022/12/02 02:43:39;;;;;;;9.18;2.37;;;26.40;85.70;;;;;;1775332;80;21170;-73
2022/12/02 02:46:11;;;;;;;6.72;3.22;;;26.40;86.00;;;;;;1765219;80;21138;-72
2022/12/02 02:48:43;;;;;;;5.15;2.27;;;26.50;85.70;;;;;;1770847;80;21175;-73
2022/12/02 02:51:14;;;;;;;6.72;2.80;;;26.50;86.00;;;;;;1774715;79;21189;-72
2022/12/02 02:53:45;;;;;;;13.68;6.33;;;26.50;86.00;;;;;;1768665;80;21153;-72
2022/12/02 02:56:16;;;;;;;10.88;3.87;;;26.60;85.60;;;;;;1775970;79;22256;-74
2022/12/02 02:58:47;;;;;;;5.75;3.67;;;26.60;85.70;;;;;;1770892;80;21103;-72
2022/12/02 03:01:26;;;;;;;7.42;2.60;;;26.70;85.90;;;;;;1764205;79;21242;-73
2022/12/02 03:04:03;;;;;;;5.45;2.45;;;26.70;85.30;;;;;;1786122;80;21119;-73
2022/12/02 03:06:36;;;;;;;5.90;2.50;;;26.70;85.50;;;;;;1762554;79;21661;-72
2022/12/02 03:09:08;;;;;;;5.12;1.72;;;26.80;85.30;;;;;;1778116;79;21540;-72
2022/12/02 03:11:39;;;;;;;4.75;2.10;;;26.90;84.70;;;;;;1770931;80;21249;-72
2022/12/02 03:14:14;;;;;;;3.50;1.62;;;26.90;84.20;;;;;;1775918;80;21687;-73
2022/12/02 03:16:49;;;;;;;7.17;2.33;;;27.00;84.30;;;;;;1775237;80;21147;-72
2022/12/02 03:19:20;;;;;;;4.42;1.87;;;27.10;84.60;;;;;;1779845;79;21622;-72
2022/12/02 03:21:51;;;;;;;3.42;1.80;;;27.10;84.40;;;;;;1774676;80;21163;-72
2022/12/02 03:24:22;;;;;;;2.47;1.50;;;27.20;83.60;;;;;;1765912;80;21198;-72
2022/12/02 03:26:54;;;;;;;4.70;1.95;;;27.30;83.50;;;;;;1765739;80;21166;-71
2022/12/02 03:29:25;;;;;;;5.17;1.85;;;27.30;83.20;;;;;;1743895;81;21178;-73
2022/12/02 03:31:58;;;;;;;6.45;1.77;;;27.40;83.00;;;;;;1770022;80;21198;-72
2022/12/02 03:34:32;;;;;;;5.83;1.80;;;27.40;82.70;;;;;;1778398;79;21182;-72
2022/12/02 03:37:04;;;;;;;4.47;2.40;;;27.50;82.20;;;;;;1766769;80;21190;-72
2022/12/02 03:39:37;;;;;;;2.25;1.32;;;27.50;82.00;;;;;;1775784;79;21111;-71
2022/12/02 03:42:08;;;;;;;3.67;1.87;;;27.60;81.60;;;;;;1768714;80;21158;-72
2022/12/02 03:44:42;;;;;;;3.25;1.60;;;27.70;80.70;;;;;;1772439;80;21242;-73
2022/12/02 03:47:14;;;;;;;6.37;1.92;;;27.80;80.70;;;;;;1775706;79;21142;-74
2022/12/02 03:49:45;;;;;;;3.08;1.52;;;27.90;80.80;;;;;;1773422;80;21443;-70
2022/12/02 03:52:16;;;;;;;5.20;1.77;;;28.00;79.90;;;;;;1770710;80;21167;-72
2022/12/02 03:54:48;;;;;;;7.70;1.77;;;28.10;80.30;;;;;;1783218;80;21162;-71
2022/12/02 03:57:23;;;;;;;3.05;1.37;;;28.10;79.90;;;;;;1774241;80;21222;-73
2022/12/02 03:59:55;;;;;;;4.75;1.57;;;28.20;79.80;;;;;;1783738;79;21166;-72
2022/12/02 04:02:32;;;;;;;2.83;1.57;;;28.20;79.90;;;;;;1771235;80;21168;-72
2022/12/02 04:05:03;;;;;;;3.42;1.75;;;28.20;79.50;;;;;;1723209;81;21688;-73
2022/12/02 04:07:34;;;;;;;6.25;2.00;;;28.30;79.10;;;;;;1773015;80;21187;-73
2022/12/02 04:10:11;;;;;;;5.75;1.50;;;28.30;79.10;;;;;;1777682;79;21198;-72
2022/12/02 04:12:41;;;;;;;3.55;1.72;;;28.50;78.90;;;;;;1784668;80;21607;-72
2022/12/02 04:15:16;;;;;;;3.58;1.70;;;28.60;77.80;;;;;;1768447;80;21183;-71
2022/12/02 04:17:48;;;;;;;2.83;1.50;;;28.70;77.80;;;;;;1777483;79;22091;-74
2022/12/02 04:20:23;;;;;;;3.80;1.60;;;28.70;77.30;;;;;;1771348;80;21637;-72
2022/12/02 04:22:55;;;;;;;3.98;1.62;;;28.90;76.80;;;;;;1774180;80;21193;-73
2022/12/02 04:25:25;;;;;;;2.55;1.70;;;29.00;77.10;;;;;;1770786;80;21187;-72
2022/12/02 04:28:01;;;;;;;4.22;1.62;;;29.00;76.30;;;;;;1762239;80;21197;-72
2022/12/02 04:30:32;;;;;;;4.53;1.42;;;29.00;75.80;;;;;;1739031;81;21273;-73
2022/12/02 04:33:03;;;;;;;3.42;1.82;;;29.10;76.70;;;;;;1766386;80;21574;-72
2022/12/02 04:35:34;;;;;;;3.62;2.25;;;29.20;75.20;;;;;;1753498;79;21197;-72
2022/12/02 04:38:04;;;;;;;3.35;1.80;;;29.30;74.80;;;;;;1783862;79;21112;-72
2022/12/02 04:40:38;;;;;;;2.92;1.60;;;29.30;74.70;;;;;;1742354;79;21189;-74
2022/12/02 04:43:09;;;;;;;2.30;1.20;;;29.30;75.00;;;;;;1776830;80;21598;-72
2022/12/02 04:45:39;;;;;;;5.70;1.32;;;29.40;74.80;;;;;;1778183;80;21126;-72
2022/12/02 04:48:10;;;;;;;3.08;1.35;;;29.40;74.80;;;;;;1779920;80;21777;-74
2022/12/02 04:50:42;;;;;;;3.20;1.42;;;29.60;74.20;;;;;;1779772;79;21193;-75
2022/12/02 04:53:14;;;;;;;1.85;1.10;;;29.60;74.60;;;;;;1790034;80;21248;-73
2022/12/02 04:55:45;;;;;;;2.80;1.20;;;29.70;73.90;;;;;;1776150;80;21401;-70
2022/12/02 04:58:16;;;;;;;4.12;1.50;;;29.80;73.60;;;;;;1771323;80;21176;-71
2022/12/02 05:00:49;;;;;;;2.55;1.22;;;29.80;73.80;;;;;;1772909;80;21187;-72
2022/12/02 05:03:21;;;;;;;3.80;1.67;;;29.90;73.20;;;;;;1775566;78;21269;-74
2022/12/02 05:05:52;;;;;;;3.15;1.40;;;30.10;73.20;;;;;;1783356;80;21241;-70
2022/12/02 05:08:24;;;;;;;3.15;1.10;;;30.10;72.30;;;;;;1758676;80;21202;-71
2022/12/02 05:10:55;;;;;;;4.45;1.35;;;30.20;72.20;;;;;;1769981;80;21252;-72
2022/12/02 05:13:26;;;;;;;3.52;1.25;;;30.30;71.50;;;;;;1727575;82;21182;-72
2022/12/02 05:15:57;;;;;;;2.35;1.30;;;30.30;71.90;;;;;;1768772;80;21166;-71
2022/12/02 05:18:28;;;;;;;3.30;1.10;;;30.40;72.40;;;;;;1761495;80;21285;-72
2022/12/02 05:21:00;;;;;;;3.02;1.30;;;30.50;72.70;;;;;;1763846;80;21190;-72
2022/12/02 05:23:39;;;;;;;5.35;1.47;;;30.60;71.40;;;;;;1771106;80;21225;-71
2022/12/02 05:26:07;;;;;;;1.90;1.20;;;30.60;71.80;;;;;;1773792;80;21638;-71
2022/12/02 05:28:40;;;;;;;5.75;1.60;;;30.60;71.00;;;;;;1768826;80;22597;-71
2022/12/02 05:31:11;;;;;;;2.92;1.22;;;30.60;71.20;;;;;;1757971;80;21249;-71
2022/12/02 05:33:45;;;;;;;4.87;1.55;;;30.70;70.20;;;;;;1779784;80;21949;-71
2022/12/02 05:36:16;;;;;;;2.80;1.10;;;30.70;70.10;;;;;;1769711;80;21239;-71
2022/12/02 05:38:47;;;;;;;1.87;1.00;;;30.70;70.60;;;;;;1778533;80;21182;-71
2022/12/02 05:41:18;;;;;;;3.12;1.25;;;30.70;70.00;;;;;;1772262;80;21666;-70
2022/12/02 05:43:48;;;;;;;3.08;1.00;;;30.60;70.00;;;;;;1745092;81;21178;-72
2022/12/02 05:46:20;;;;;;;3.95;1.65;;;30.70;70.40;;;;;;1753694;80;21245;-70
2022/12/02 05:48:52;;;;;;;2.30;1.20;;;30.70;70.60;;;;;;1774269;79;21190;-73
2022/12/02 05:51:23;;;;;;;3.83;1.15;;;30.70;70.20;;;;;;1770486;80;21147;-71
2022/12/02 05:53:54;;;;;;;3.02;1.30;;;30.70;70.40;;;;;;1774093;80;21104;-71
2022/12/02 05:56:26;;;;;;;3.12;1.27;;;30.70;70.50;;;;;;1771722;80;21178;-71
2022/12/02 05:59:02;;;;;;;2.70;1.20;;;30.70;71.10;;;;;;1772698;80;21646;-72
2022/12/02 06:01:39;;;;;;;3.25;1.45;;;30.70;70.90;;;;;;1775849;80;21204;-73
2022/12/02 06:04:16;;;;;;;2.00;1.30;;;30.70;70.90;;;;;;1776306;79;21198;-72
2022/12/02 06:06:51;;;;;;;2.20;1.10;;;30.70;70.70;;;;;;1781857;80;21626;-71
2022/12/02 06:09:28;;;;;;;2.70;1.40;;;30.80;70.60;;;;;;1768674;80;21217;-71
2022/12/02 06:12:02;;;;;;;2.33;1.10;;;30.90;70.70;;;;;;1768117;80;21196;-72
2022/12/02 06:14:34;;;;;;;2.15;1.05;;;31.00;70.50;;;;;;1769878;79;21250;-71
2022/12/02 06:17:11;;;;;;;2.80;1.10;;;31.10;69.50;;;;;;1735472;81;21140;-71
2022/12/02 06:19:50;;;;;;;3.72;1.07;;;31.10;69.80;;;;;;1770176;79;21146;-70
2022/12/02 06:22:29;;;;;;;4.08;1.15;;;31.10;69.50;;;;;;1771054;80;21645;-70
2022/12/02 06:28:05;;;;;;;2.90;0.90;;;31.20;69.70;;;;;;1745525;80;21987;-71
2022/12/02 06:30:40;;;;;;;3.60;1.25;;;31.20;69.90;;;;;;1810982;77;21111;-72
2022/12/02 06:33:25;;;;;;;2.72;0.95;;;31.20;69.00;;;;;;1810936;77;21733;-72
2022/12/02 06:35:57;;;;;;;2.93;1.00;;;31.20;69.50;;;;;;1800961;78;21147;-72
2022/12/02 06:38:30;;;;;;;2.10;1.00;;;31.20;68.70;;;;;;1806616;79;21638;-72
2022/12/02 06:41:03;;;;;;;2.00;0.70;;;31.20;68.60;;;;;;1806585;78;21547;-72
2022/12/02 06:43:36;;;;;;;2.15;0.80;;;31.30;68.20;;;;;;1796183;78;21195;-72
2022/12/02 06:46:17;;;;;;;3.70;0.88;;;31.30;68.40;;;;;;1780627;79;21228;-71
2022/12/02 06:48:51;;;;;;;2.22;0.82;;;31.40;68.30;;;;;;1802856;78;21182;-72
2022/12/02 06:51:22;;;;;;;3.17;1.05;;;31.40;69.70;;;;;;1816916;77;21137;-71
2022/12/02 06:53:54;;;;;;;2.87;0.90;;;31.20;68.10;;;;;;1817229;77;21297;-72
2022/12/02 06:56:31;;;;;;;2.20;1.17;;;31.20;68.00;;;;;;1782104;79;21275;-72
2022/12/02 06:59:04;;;;;;;4.10;0.90;;;31.10;68.90;;;;;;1803487;78;21147;-72
2022/12/02 07:01:43;;;;;;;1.70;0.95;;;31.00;69.40;;;;;;1763813;79;21801;-72
2022/12/02 07:04:33;;;;;;;2.30;0.85;;;30.90;69.30;;;;;;1797346;78;21691;-72
2022/12/02 07:07:24;;;;;;;2.85;0.90;;;30.80;69.50;;;;;;1811033;77;21087;-72
2022/12/02 07:09:58;;;;;;;3.58;0.98;;;30.80;69.60;;;;;;1807562;78;21300;-72
2022/12/02 07:12:45;;;;;;;2.10;0.90;;;30.80;70.00;;;;;;1780629;79;21138;-71
2022/12/02 07:15:30;;;;;;;4.92;1.27;;;30.70;70.00;;;;;;1814934;77;21300;-71
2022/12/02 07:18:13;;;;;;;3.92;1.25;;;30.60;70.20;;;;;;1814459;78;21171;-70
2022/12/02 07:20:46;;;;;;;4.78;1.17;;;30.60;70.70;;;;;;1814570;78;21127;-71
2022/12/02 07:23:23;;;;;;;2.85;0.82;;;30.70;70.60;;;;;;1808950;78;21150;-70
2022/12/02 07:25:59;;;;;;;3.90;1.00;;;30.70;70.50;;;;;;1812486;78;21171;-70
2022/12/02 07:28:35;;;;;;;1.93;0.90;;;30.70;69.90;;;;;;1786706;78;21095;-72
2022/12/02 07:31:30;;;;;;;3.40;1.00;;;30.80;69.20;;;;;;1806754;78;21152;-72
2022/12/02 07:34:01;;;;;;;6.65;0.98;;;30.80;70.40;;;;;;1814033;78;21135;-72
2022/12/02 07:36:31;;;;;;;3.85;1.27;;;30.80;69.50;;;;;;1813707;77;21206;-72
2022/12/02 07:39:02;;;;;;;2.98;0.98;;;30.70;70.20;;;;;;1782141;79;21228;-73
2022/12/02 07:41:34;;;;;;;2.35;0.80;;;30.70;69.80;;;;;;1805732;77;21268;-71
2022/12/02 07:44:06;;;;;;;3.27;0.85;;;30.70;69.80;;;;;;1800105;78;21209;-71
2022/12/02 07:46:37;;;;;;;2.72;1.02;;;30.70;70.00;;;;;;1810469;77;21511;-72
2022/12/02 07:49:11;;;;;;;3.98;1.10;;;30.80;69.80;;;;;;1795872;78;21731;-73
2022/12/02 07:51:41;;;;;;;3.35;1.05;;;30.80;69.70;;;;;;1802918;78;21177;-72
2022/12/02 07:54:32;;;;;;;6.25;1.37;;;30.80;69.60;;;;;;1791672;78;21162;-72
2022/12/02 07:57:04;;;;;;;6.20;2.58;;;30.90;69.10;;;;;;1785124;78;21162;-72
2022/12/02 07:59:35;;;;;;;2.83;0.95;;;30.90;69.20;;;;;;1786782;79;21183;-71
2022/12/02 08:02:06;;;;;;;1.62;0.80;;;31.00;69.00;;;;;;1782036;79;21240;-71
2022/12/02 08:04:45;;;;;;;3.77;0.98;;;31.00;68.80;;;;;;1777292;79;21166;-72
2022/12/02 08:07:15;;;;;;;2.42;0.75;;;31.10;68.60;;;;;;1789777;78;21197;-72
2022/12/02 08:09:47;;;;;;;3.75;0.98;;;31.10;68.30;;;;;;1784323;79;21166;-72
2022/12/02 08:12:18;;;;;;;2.22;0.70;;;31.00;68.80;;;;;;1788685;80;21185;-71
2022/12/02 08:14:50;;;;;;;1.70;0.80;;;30.90;68.70;;;;;;1785418;79;21284;-72
2022/12/02 08:17:21;;;;;;;4.45;0.90;;;30.90;69.00;;;;;;1785765;79;21214;-71
2022/12/02 08:19:52;;;;;;;2.00;0.80;;;30.80;69.30;;;;;;1778451;79;21155;-72
2022/12/02 08:22:23;;;;;;;2.87;1.07;;;30.80;69.20;;;;;;1780913;80;21146;-71
2022/12/02 08:25:17;;;;;;;184.28;34.10;;;30.70;69.70;;;;;;1784780;79;21681;-73
2022/12/02 08:27:47;;;;;;;106.05;22.37;;;30.60;70.20;;;;;;1808710;78;21253;-73
2022/12/02 08:30:18;;;;;;;58.35;10.55;;;30.60;69.90;;;;;;1809277;77;21449;-72
2022/12/02 08:32:53;;;;;;;113.55;19.55;;;30.60;70.40;;;;;;1825092;78;21150;-73
2022/12/02 08:35:24;;;;;;;17.52;3.85;;;30.50;70.50;;;;;;1809000;78;21261;-72
2022/12/02 08:37:55;;;;;;;19.10;4.78;;;30.50;70.80;;;;;;1811180;78;21136;-72
2022/12/02 08:40:27;;;;;;;8.05;2.95;;;30.50;70.70;;;;;;1808778;78;21327;-72
2022/12/02 08:43:00;;;;;;;7.20;2.95;;;30.50;70.50;;;;;;1780671;79;21720;-72
2022/12/02 08:45:31;;;;;;;7.95;2.10;;;30.50;70.80;;;;;;1797989;79;21130;-73
2022/12/02 08:48:02;;;;;;;6.35;2.00;;;30.50;70.60;;;;;;1799081;78;21631;-72
2022/12/02 08:50:32;;;;;;;7.20;1.82;;;30.50;70.70;;;;;;1813295;78;21193;-72
2022/12/02 08:53:03;;;;;;;2.40;1.32;;;30.40;71.10;;;;;;1812318;77;21078;-73
2022/12/02 08:55:34;;;;;;;8.35;1.92;;;30.40;71.40;;;;;;1783789;78;21110;-72
2022/12/02 08:58:05;;;;;;;3.20;1.02;;;30.30;71.60;;;;;;1816902;78;21107;-72
2022/12/02 09:00:36;;;;;;;4.47;1.20;;;30.30;71.20;;;;;;1816675;77;21267;-72
2022/12/02 09:03:09;;;;;;;2.10;1.10;;;30.30;71.60;;;;;;1812151;78;21159;-72
2022/12/02 09:05:41;;;;;;;2.77;1.20;;;30.20;71.70;;;;;;1802783;78;21678;-72
2022/12/02 09:08:13;;;;;;;2.77;1.15;;;30.20;71.60;;;;;;1772301;80;21126;-73
2022/12/02 09:10:44;;;;;;;18.62;3.05;;;30.20;71.30;;;;;;1798525;78;21190;-73
2022/12/02 09:13:15;;;;;;;8.43;1.60;;;30.10;71.60;;;;;;1831919;78;21122;-72
2022/12/02 09:15:45;;;;;;;2.83;1.27;;;30.10;71.80;;;;;;1790564;79;21122;-72
2022/12/02 09:18:17;;;;;;;27.65;4.97;;;30.00;71.90;;;;;;1817705;78;21196;-71
2022/12/02 09:20:51;;;;;;;9.78;2.50;;;30.00;71.70;;;;;;1821117;78;22216;-74
2022/12/02 09:23:22;;;;;;;11.45;2.52;;;30.10;71.80;;;;;;1819265;77;21217;-73
2022/12/02 09:25:53;;;;;;;43.78;7.97;;;30.10;72.20;;;;;;1823202;77;21206;-75
2022/12/02 09:28:24;;;;;;;14.33;3.27;;;30.00;72.10;;;;;;1832988;78;21693;-73
2022/12/02 09:30:54;;;;;;;5.58;2.00;;;30.00;72.20;;;;;;1822721;78;21186;-76
2022/12/02 09:33:26;;;;;;;8.05;2.02;;;30.00;72.40;;;;;;1783318;79;21701;-73
2022/12/02 09:35:58;;;;;;;15.28;2.45;;;29.90;72.80;;;;;;1775647;80;21068;-75
2022/12/02 09:38:30;;;;;;;3.77;1.72;;;29.90;73.10;;;;;;1817234;78;21220;-75
2022/12/02 09:41:04;;;;;;;4.90;1.80;;;29.90;73.90;;;;;;1795866;78;21201;-74
2022/12/02 09:43:36;;;;;;;38.23;6.83;;;29.90;73.30;;;;;;1810238;77;21260;-73
2022/12/02 09:46:08;;;;;;;20.23;3.20;;;29.90;73.70;;;;;;1816986;78;21201;-75
2022/12/02 09:48:41;;;;;;;10.98;1.95;;;29.80;73.80;;;;;;1818077;78;21283;-77
2022/12/02 09:51:13;;;;;;;5.12;1.65;;;29.80;74.00;;;;;;1825246;78;21684;-75
2022/12/02 09:53:46;;;;;;;7.92;1.60;;;29.80;74.20;;;;;;1815746;78;21260;-73
2022/12/02 09:56:21;;;;;;;7.40;3.00;;;29.80;74.10;;;;;;1821330;78;21153;-74
2022/12/02 09:58:54;;;;;;;3.17;1.72;;;29.70;74.30;;;;;;1822501;77;21737;-77
2022/12/02 10:01:30;;;;;;;100.92;19.98;;;29.70;74.30;;;;;;1801973;78;21164;-74
2022/12/02 10:04:01;;;;;;;;;;;29.60;74.40;;;;;;1809273;78;21154;-74
2022/12/02 10:06:32;;;;;;;26.23;5.47;;;29.60;74.60;;;;;;1819639;77;20448;-75
2022/12/02 10:09:03;;;;;;;9.53;2.50;;;29.60;74.80;;;;;;1824855;77;21151;-75
2022/12/02 10:11:34;;;;;;;13.65;3.25;;;29.60;75.00;;;;;;1810111;78;21224;-74
2022/12/02 10:14:11;;;;;;;62.45;7.50;;;29.50;74.90;;;;;;1784131;80;21139;-76
2022/12/02 10:16:40;;;;;;;44.15;6.30;;;29.50;75.10;;;;;;1761156;80;21147;-74
2022/12/02 10:19:17;;;;;;;11.75;2.67;;;29.50;75.30;;;;;;1802295;79;21178;-73
2022/12/02 10:21:48;;;;;;;6.20;2.27;;;29.50;75.40;;;;;;1808871;78;21163;-73
2022/12/02 10:24:23;;;;;;;3.30;1.57;;;29.40;75.40;;;;;;1805420;78;21176;-73
2022/12/02 10:26:56;;;;;;;4.92;1.95;;;29.40;75.60;;;;;;1802568;78;21184;-76
2022/12/02 10:29:31;;;;;;;6.67;1.67;;;29.40;75.80;;;;;;1809055;78;21542;-73
2022/12/02 10:32:08;;;;;;;6.20;1.90;;;29.40;75.90;;;;;;1786299;79;21680;-72
2022/12/02 10:34:38;;;;;;;;;;;29.30;75.90;;;;;;1806663;77;21641;-73
2022/12/02 10:37:28;;;;;;;6.83;2.87;;;29.30;76.00;;;;;;1813369;78;20125;-73
2022/12/02 10:40:16;;;;;;;6.20;3.47;;;29.30;76.20;;;;;;1815528;78;21193;-72
2022/12/02 10:42:48;;;;;;;7.72;3.95;;;29.30;76.30;;;;;;1823999;78;21153;-74
2022/12/02 10:45:21;;;;;;;12.45;4.22;;;29.30;76.50;;;;;;1812200;78;21169;-74
2022/12/02 10:47:55;;;;;;;7.37;3.10;;;29.30;76.50;;;;;;1754464;80;21693;-73
2022/12/02 10:50:25;;;;;;;6.60;2.98;;;29.20;76.50;;;;;;1755545;80;21204;-74
2022/12/02 10:53:01;;;;;;;5.55;2.87;;;29.20;76.70;;;;;;1827110;78;21237;-74
2022/12/02 10:55:32;;;;;;;7.07;2.90;;;29.20;76.80;;;;;;1821887;78;21446;-76
2022/12/02 10:58:03;;;;;;;4.47;3.02;;;29.30;76.90;;;;;;1810425;78;21638;-74
2022/12/02 11:00:34;;;;;;;9.90;3.10;;;29.20;76.90;;;;;;1823299;77;21144;-74
2022/12/02 11:03:09;;;;;;;6.28;2.83;;;29.20;76.90;;;;;;1807736;77;21214;-75
2022/12/02 11:05:41;;;;;;;4.35;2.75;;;29.20;77.10;;;;;;1820568;77;21213;-74
2022/12/02 11:08:27;;;;;;;6.08;2.85;;;29.20;77.20;;;;;;1763471;81;21245;-74
2022/12/02 11:11:19;;;;;;;8.30;3.35;;;29.10;77.30;;;;;;1779803;79;21225;-73
2022/12/02 11:13:58;;;;;;;6.65;3.00;;;29.10;77.30;;;;;;1757957;80;22179;-72
2022/12/02 11:16:34;;;;;;;7.58;4.28;;;29.10;77.50;;;;;;1814916;77;21724;-74
2022/12/02 11:19:32;;;;;;;10.80;6.42;;;29.10;77.70;;;;;;1819506;77;21214;-74
2022/12/02 11:22:26;;;;;;;12.50;6.62;;;29.10;77.90;;;;;;1825565;77;21707;-73
2022/12/02 11:24:59;;;;;;;10.98;6.10;;;29.00;77.90;;;;;;1818528;78;21709;-73
2022/12/02 11:27:30;;;;;;;9.33;3.87;;;29.00;77.80;;;;;;1811494;78;21208;-73
2022/12/02 11:30:09;;;;;;;10.58;3.87;;;29.00;77.80;;;;;;1733688;81;21221;-74
2022/12/02 11:32:43;;;;;;;8.85;4.50;;;28.90;78.00;;;;;;1821822;78;21186;-75
2022/12/02 11:35:17;;;;;;;8.45;6.12;;;28.90;78.00;;;;;;1821853;77;21154;-73
2022/12/02 11:37:51;;;;;;;9.75;5.85;;;28.90;77.90;;;;;;1789630;78;21213;-74
2022/12/02 11:40:33;;;;;;;9.38;4.35;;;28.90;77.90;;;;;;1798914;79;21146;-75
2022/12/02 11:43:43;;;;;;;9.48;4.58;;;28.90;78.00;;;;;;1815084;78;21223;-74
2022/12/02 11:46:17;;;;;;;9.45;4.87;;;28.80;78.00;;;;;;1818953;78;21155;-75
2022/12/02 11:48:58;;;;;;;8.78;4.83;;;28.80;78.50;;;;;;1808113;78;21139;-75
2022/12/02 11:51:40;;;;;;;11.45;6.65;;;28.80;78.70;;;;;;1824539;78;21104;-74
2022/12/02 11:54:13;;;;;;;15.58;7.53;;;28.80;78.80;;;;;;1815611;78;21250;-74
2022/12/02 11:56:48;;;;;;;9.83;5.92;;;28.70;78.80;;;;;;1773744;80;21205;-74
2022/12/02 11:59:33;;;;;;;13.15;5.45;;;28.70;79.10;;;;;;1822247;78;21158;-73
2022/12/02 12:02:12;;;;;;;9.70;5.22;;;28.70;79.00;;;;;;1812478;78;21188;-73
2022/12/02 12:04:44;;;;;;;9.55;5.05;;;28.70;79.00;;;;;;1818286;78;21138;-73
2022/12/02 12:07:15;;;;;;;11.57;5.08;;;28.70;79.20;;;;;;1818303;78;21174;-75
2022/12/02 12:09:58;;;;;;;9.98;4.67;;;28.60;79.20;;;;;;1808549;78;21212;-75
2022/12/02 12:12:30;;;;;;;9.40;4.67;;;28.60;79.20;;;;;;1828361;78;21620;-73
2022/12/02 12:15:05;;;;;;;9.65;5.37;;;28.50;79.20;;;;;;1818979;78;21108;-73
2022/12/02 12:17:42;;;;;;;9.93;5.42;;;28.50;79.30;;;;;;1822820;78;21166;-74
2022/12/02 12:20:19;;;;;;;11.22;5.75;;;28.50;79.60;;;;;;1795546;78;21229;-73
2022/12/02 12:22:51;;;;;;;15.50;6.97;;;28.40;79.60;;;;;;1787643;79;21616;-74
2022/12/02 12:25:33;;;;;;;14.40;7.28;;;28.40;79.80;;;;;;1791731;79;21126;-74
2022/12/02 12:28:25;;;;;;;12.43;7.33;;;28.40;79.80;;;;;;1788993;79;21594;-73
2022/12/02 12:30:59;;;;;;;14.07;7.85;;;28.30;79.50;;;;;;1815342;78;22085;-74
2022/12/02 12:33:32;;;;;;;13.00;7.80;;;28.30;80.00;;;;;;1818783;78;21181;-76
2022/12/02 12:36:03;;;;;;;16.40;8.13;;;28.30;80.20;;;;;;1816560;79;21217;-74
2022/12/02 12:38:34;;;;;;;12.90;6.87;;;28.20;80.20;;;;;;1814973;78;21205;-75
2022/12/02 12:41:17;;;;;;;13.70;7.62;;;28.20;80.60;;;;;;1812204;78;21131;-74
2022/12/02 12:43:50;;;;;;;13.60;7.95;;;28.20;80.60;;;;;;1776301;78;21181;-73
2022/12/02 12:46:27;;;;;;;15.80;7.30;;;28.20;80.80;;;;;;1814831;78;21165;-74
2022/12/02 12:49:00;;;;;;;15.23;7.85;;;28.10;80.90;;;;;;1812623;78;21253;-75
2022/12/02 12:51:34;;;;;;;12.55;6.83;;;28.10;81.00;;;;;;1819070;78;21169;-75
2022/12/02 12:54:07;;;;;;;11.05;7.03;;;28.10;81.20;;;;;;1817197;77;21121;-76
2022/12/02 12:56:37;;;;;;;12.63;7.00;;;28.10;81.20;;;;;;1803383;78;21216;-74
2022/12/02 12:59:13;;;;;;;14.03;6.95;;;28.00;81.40;;;;;;1810582;77;21259;-75
2022/12/02 13:01:46;;;;;;;14.35;7.42;;;28.00;81.50;;;;;;1813990;78;21180;-75
2022/12/02 13:04:17;;;;;;;14.15;8.00;;;28.00;81.60;;;;;;1823327;78;21673;-75
2022/12/02 13:06:48;;;;;;;14.20;7.75;;;28.00;81.80;;;;;;1813255;78;21201;-74
2022/12/02 13:09:22;;;;;;;16.97;8.13;;;28.00;81.90;;;;;;1817599;78;21155;-73
2022/12/02 13:11:54;;;;;;;14.40;7.72;;;28.00;82.00;;;;;;1830276;78;21123;-74
2022/12/02 13:14:25;;;;;;;13.80;8.33;;;28.00;82.10;;;;;;1824116;78;21162;-73
2022/12/02 13:16:59;;;;;;;16.37;8.43;;;27.90;82.30;;;;;;1818319;78;21202;-76
2022/12/02 13:19:31;;;;;;;13.18;8.08;;;27.90;82.20;;;;;;1805014;78;21196;-74
2022/12/02 13:22:02;;;;;;;13.13;7.95;;;27.90;82.30;;;;;;1806048;78;21147;-73
2022/12/02 13:24:34;;;;;;;16.27;8.60;;;27.90;82.60;;;;;;1803057;78;21106;-73
2022/12/02 13:27:06;;;;;;;17.67;8.35;;;27.80;82.70;;;;;;1814363;78;21216;-73